createdAt,value
2023-06-26T00:01:43.790Z,4.15
2023-06-26T00:06:37.205Z,4.13
2023-06-26T00:11:34.451Z,3.13
2023-06-26T00:16:27.882Z,3.83
2023-06-26T00:21:21.368Z,3.92
2023-06-26T00:26:14.771Z,3.45
2023-06-26T00:31:09.540Z,3.95
2023-06-26T00:36:02.945Z,2.95
2023-06-26T00:40:57.223Z,3.95
2023-06-26T00:45:50.774Z,4.82
2023-06-26T00:50:45.889Z,3.70
2023-06-26T00:55:39.358Z,3.70
2023-06-26T01:00:32.890Z,4.60
2023-06-26T01:05:26.310Z,4.93
2023-06-26T01:10:21.694Z,4.25
2023-06-26T01:15:15.145Z,4.38
2023-06-26T01:20:10.512Z,4.25
2023-06-26T01:25:19.832Z,6.20
2023-06-26T01:30:15.998Z,3.53
2023-06-26T01:35:11.707Z,4.05
2023-06-26T01:40:06.561Z,3.40
2023-06-26T01:45:04.324Z,4.57
2023-06-26T01:50:07.976Z,3.00
2023-06-26T01:55:11.171Z,3.65
2023-06-26T02:00:07.291Z,4.82
2023-06-26T02:05:02.028Z,5.78
2023-06-26T02:09:55.722Z,6.53
2023-06-26T02:14:49.057Z,5.03
2023-06-26T02:19:48.856Z,4.43
2023-06-26T02:24:43.737Z,4.97
2023-06-26T02:29:37.188Z,3.50
2023-06-26T02:34:31.541Z,3.88
2023-06-26T02:39:24.962Z,4.63
2023-06-26T02:44:19.687Z,3.60
2023-06-26T02:49:12.980Z,3.75
2023-06-26T02:54:06.607Z,2.88
2023-06-26T02:59:00.300Z,4.57
2023-06-26T03:03:55.045Z,4.68
2023-06-26T03:08:48.400Z,5.28
2023-06-26T03:13:41.703Z,3.83
2023-06-26T03:18:35.068Z,2.90
2023-06-26T03:23:29.930Z,4.38
2023-06-26T03:28:23.402Z,4.78
2023-06-26T03:33:16.805Z,5.03
2023-06-26T03:38:10.086Z,4.80
2023-06-26T03:43:04.904Z,4.63
2023-06-26T03:47:58.217Z,5.00
2023-06-26T03:52:52.616Z,5.05
2023-06-26T03:57:45.903Z,5.72
2023-06-26T04:02:40.748Z,3.95
2023-06-26T04:07:34.484Z,6.32
2023-06-26T04:12:27.878Z,4.32
2023-06-26T04:17:21.870Z,5.18
2023-06-26T04:22:16.566Z,4.82
2023-06-26T04:27:10.296Z,4.05
2023-06-26T04:32:04.391Z,4.63
2023-06-26T04:36:57.922Z,3.70
2023-06-26T04:41:53.568Z,4.95
2023-06-26T04:46:47.175Z,4.60
2023-06-26T04:51:41.754Z,7.32
2023-06-26T04:56:35.110Z,4.38
2023-06-26T05:01:31.093Z,6.93
2023-06-26T05:06:24.922Z,5.15
2023-06-26T05:11:18.288Z,5.13
2023-06-26T05:16:12.153Z,5.93
2023-06-26T05:21:08.775Z,3.72
2023-06-26T05:26:03.005Z,5.15
2023-06-26T05:30:57.590Z,7.15
2023-06-26T05:35:53.720Z,4.93
2023-06-26T05:40:49.842Z,5.47
2023-06-26T05:45:43.675Z,4.95
2023-06-26T05:50:38.454Z,5.40
2023-06-26T05:55:32.569Z,3.97
2023-06-26T06:00:29.678Z,4.18
2023-06-26T06:05:23.344Z,4.80
2023-06-26T06:10:16.706Z,4.90
2023-06-26T06:15:10.948Z,6.43
2023-06-26T06:20:07.649Z,4.90
2023-06-26T06:25:01.843Z,6.45
2023-06-26T06:29:55.150Z,4.25
2023-06-26T06:34:48.407Z,6.07
2023-06-26T06:39:43.142Z,5.25
2023-06-26T06:44:36.449Z,4.72
2023-06-26T06:49:30.011Z,5.18
2023-06-26T06:54:23.370Z,4.25
2023-06-26T06:59:18.119Z,4.13
2023-06-26T07:04:11.512Z,6.15
2023-06-26T07:09:05.116Z,6.40
2023-06-26T07:13:58.399Z,5.60
2023-06-26T07:18:53.256Z,5.80
2023-06-26T07:23:46.584Z,5.60
2023-06-26T07:28:40.117Z,5.85
2023-06-26T07:33:33.468Z,7.88
2023-06-26T07:38:28.107Z,5.25
2023-06-26T07:43:21.412Z,4.20
2023-06-26T07:48:14.698Z,5.53
2023-06-26T07:53:07.990Z,5.72
2023-06-26T07:58:03.386Z,4.95
2023-06-26T08:02:56.774Z,4.53
2023-06-26T08:07:50.095Z,4.25
2023-06-26T08:12:46.122Z,5.88
2023-06-26T08:17:41.368Z,5.45
2023-06-26T08:22:34.699Z,5.90
2023-06-26T08:27:28.173Z,5.97
2023-06-26T08:32:21.508Z,4.53
2023-06-26T08:37:16.950Z,4.13
2023-06-26T08:42:10.721Z,5.10
2023-06-26T08:47:06.787Z,4.25
2023-06-26T08:52:12.664Z,4.50
2023-06-26T08:57:17.417Z,3.10
2023-06-26T09:02:11.080Z,4.72
2023-06-26T09:07:04.761Z,4.35
2023-06-26T09:11:58.130Z,4.05
2023-06-26T09:16:53.021Z,4.15
2023-06-26T09:21:46.455Z,3.85
2023-06-26T09:26:45.018Z,3.78
2023-06-26T09:31:42.149Z,4.97
2023-06-26T09:36:40.038Z,7.93
2023-06-26T09:41:34.031Z,4.53
2023-06-26T09:46:28.910Z,4.10
2023-06-26T09:51:25.217Z,3.90
2023-06-26T09:56:20.486Z,3.28
2023-06-26T10:01:13.984Z,4.10
2023-06-26T10:06:11.306Z,3.78
2023-06-26T10:11:04.805Z,2.83
2023-06-26T10:16:02.836Z,4.18
2023-06-26T10:21:00.563Z,3.38
2023-06-26T10:25:57.644Z,3.70
2023-06-26T10:30:55.444Z,3.65
2023-06-26T10:35:50.629Z,3.92
2023-06-26T10:40:49.910Z,5.18
2023-06-26T10:45:53.196Z,3.53
2023-06-26T10:50:51.510Z,3.20
2023-06-26T10:55:49.331Z,2.83
2023-06-26T11:00:52.477Z,2.92
2023-06-26T11:05:45.892Z,3.05
2023-06-26T11:10:55.127Z,3.28
2023-06-26T11:15:52.730Z,3.30
2023-06-26T11:20:48.872Z,4.03
2023-06-26T11:25:44.544Z,3.63
2023-06-26T11:30:41.064Z,3.30
2023-06-26T11:35:35.055Z,2.67
2023-06-26T11:40:31.844Z,4.10
2023-06-26T11:45:25.960Z,3.50
2023-06-26T11:50:20.761Z,3.63
2023-06-26T11:55:14.189Z,4.45
2023-06-26T12:00:14.889Z,3.10
2023-06-26T12:05:10.430Z,3.67
2023-06-26T12:10:07.866Z,3.50
2023-06-26T12:15:02.046Z,4.07
2023-06-26T12:19:55.395Z,3.75
2023-06-26T12:24:50.299Z,3.72
2023-06-26T12:29:54.384Z,4.50
2023-06-26T12:34:52.233Z,3.72
2023-06-26T12:39:50.986Z,4.28
2023-06-26T12:44:45.998Z,3.28
2023-06-26T12:49:40.688Z,3.38
2023-06-26T12:54:36.388Z,4.47
2023-06-26T12:59:29.758Z,3.47
2023-06-26T13:04:24.814Z,3.70
2023-06-26T13:09:18.364Z,3.10
2023-06-26T13:14:12.362Z,3.25
2023-06-26T13:19:06.207Z,3.67
2023-06-26T13:24:01.286Z,4.78
2023-06-26T13:28:54.872Z,3.97
2023-06-26T13:33:50.874Z,3.60
2023-06-26T13:38:44.539Z,3.72
2023-06-26T13:43:39.766Z,3.80
2023-06-26T13:48:33.610Z,3.72
2023-06-26T13:53:26.948Z,4.10
2023-06-26T13:58:23.708Z,4.20
2023-06-26T14:03:18.977Z,3.80
2023-06-26T14:08:12.370Z,7.03
2023-06-26T14:13:06.284Z,3.92
2023-06-26T14:18:00.321Z,4.63
2023-06-26T14:22:55.167Z,3.97
2023-06-26T14:27:48.477Z,5.70
2023-06-26T14:32:41.923Z,4.32
2023-06-26T14:37:35.278Z,4.13
2023-06-26T14:42:29.969Z,3.13
2023-06-26T14:47:24.112Z,5.10
2023-06-26T14:52:17.970Z,4.30
2023-06-26T14:57:13.781Z,3.65
2023-06-26T15:02:11.195Z,5.80
2023-06-26T15:07:10.406Z,4.28
2023-06-26T15:12:04.108Z,5.07
2023-06-26T15:16:57.559Z,3.72
2023-06-26T15:21:52.293Z,4.72
2023-06-26T15:26:46.564Z,4.40
2023-06-26T15:31:39.892Z,4.63
2023-06-26T15:36:33.605Z,4.22
2023-06-26T15:41:28.451Z,4.07
2023-06-26T15:46:21.831Z,3.45
2023-06-26T15:51:16.729Z,3.67
2023-06-26T15:56:13.069Z,3.40
2023-06-26T16:01:08.586Z,4.00
2023-06-26T16:06:01.901Z,3.90
2023-06-26T16:10:56.101Z,4.63
2023-06-26T16:15:49.416Z,4.00
2023-06-26T16:20:44.428Z,3.55
2023-06-26T16:25:38.302Z,3.72
2023-06-26T16:30:31.884Z,3.88
2023-06-26T16:35:25.183Z,3.78
2023-06-26T16:40:19.939Z,4.97
2023-06-26T16:45:13.359Z,3.65
2023-06-26T16:50:08.347Z,4.47
2023-06-26T16:55:01.675Z,3.67
2023-06-26T16:59:56.799Z,3.10
2023-06-26T17:04:50.173Z,3.22
2023-06-26T17:09:43.536Z,3.63
2023-06-26T17:14:36.920Z,3.90
2023-06-26T17:19:32.792Z,4.20
2023-06-26T17:24:28.548Z,3.05
2023-06-26T17:29:22.240Z,2.67
2023-06-26T17:34:15.871Z,3.63
2023-06-26T17:39:10.694Z,2.55
2023-06-26T17:44:03.990Z,2.85
2023-06-26T17:48:57.296Z,2.50
2023-06-26T17:53:52.152Z,2.50
2023-06-26T17:58:49.808Z,3.15
2023-06-26T18:03:43.462Z,3.08
2023-06-26T18:08:37.364Z,2.28
2023-06-26T18:13:32.710Z,2.40
2023-06-26T18:18:27.405Z,2.95
2023-06-26T18:23:20.720Z,2.10
2023-06-26T18:28:15.079Z,2.47
2023-06-26T18:33:08.539Z,1.58
2023-06-26T18:38:06.439Z,2.40
2023-06-26T18:42:59.826Z,3.75
2023-06-26T18:47:53.572Z,1.83
2023-06-26T18:52:46.945Z,1.75
2023-06-26T18:57:41.777Z,6.07
2023-06-26T19:02:36.639Z,3.05
2023-06-26T19:07:30.438Z,2.22
2023-06-26T19:12:24.709Z,2.90
2023-06-26T19:17:19.710Z,2.90
2023-06-26T19:22:13.015Z,4.05
2023-06-26T19:27:06.719Z,3.80
2023-06-26T19:32:03.113Z,3.35
2023-06-26T19:36:57.815Z,2.70
2023-06-26T19:41:51.217Z,3.45
2023-06-26T19:46:44.517Z,4.85
2023-06-26T19:51:37.876Z,4.75
2023-06-26T19:56:32.712Z,5.75
2023-06-26T20:01:26.420Z,4.35
2023-06-26T20:06:19.791Z,4.50
2023-06-26T20:11:13.155Z,2.80
2023-06-26T20:16:08.304Z,2.92
2023-06-26T20:21:01.652Z,2.92
2023-06-26T20:25:55.044Z,2.45
2023-06-26T20:30:49.835Z,3.60
2023-06-26T20:35:44.544Z,2.20
2023-06-26T20:40:38.461Z,2.08
2023-06-26T20:45:33.013Z,2.38
2023-06-26T20:50:28.490Z,2.22
2023-06-26T20:55:24.468Z,2.20
2023-06-26T21:00:19.313Z,2.50
2023-06-26T21:05:12.820Z,3.90
2023-06-26T21:10:09.512Z,3.30
2023-06-26T21:15:05.053Z,1.92
2023-06-26T21:19:58.810Z,2.65
2023-06-26T21:24:52.495Z,1.85
2023-06-26T21:29:45.784Z,1.73
2023-06-26T21:34:40.515Z,1.50
2023-06-26T21:39:34.587Z,4.82
2023-06-26T21:44:27.905Z,1.85
2023-06-26T21:49:21.236Z,4.15
2023-06-26T21:54:15.940Z,1.48
2023-06-26T21:59:09.284Z,1.85
2023-06-26T22:04:02.613Z,1.38
2023-06-26T22:08:55.921Z,2.80
2023-06-26T22:13:50.600Z,2.28
2023-06-26T22:18:44.143Z,2.88
2023-06-26T22:23:37.444Z,1.83
2023-06-26T22:28:30.830Z,1.08
2023-06-26T22:33:25.922Z,3.47
2023-06-26T22:38:19.266Z,2.60
2023-06-26T22:43:12.581Z,3.47
2023-06-26T22:48:06.481Z,2.85
2023-06-26T22:53:01.864Z,0.57
2023-06-26T22:57:55.357Z,0.55
2023-06-26T23:02:48.839Z,0.55
2023-06-26T23:07:42.237Z,4.40
2023-06-26T23:12:37.055Z,1.17
2023-06-26T23:17:30.474Z,1.05
2023-06-26T23:22:23.947Z,0.63
2023-06-26T23:27:17.625Z,1.67
2023-06-26T23:32:15.879Z,1.10
2023-06-26T23:37:13.922Z,1.15
2023-06-26T23:42:08.272Z,1.02
2023-06-26T23:47:02.302Z,1.17
2023-06-26T23:51:57.209Z,0.73
2023-06-26T23:56:50.574Z,1.70
